sensor_id;sensor_type;location;lat;lon;timestamp;temperature;humidity
4058;DHT22;2044;48.692;9.020;2022-07-23T00:00:58;22.00;47.40
4058;DHT22;2044;48.692;9.020;2022-07-23T00:03:24;21.90;99.90
4058;DHT22;2044;48.692;9.020;2022-07-23T00:05:51;21.90;99.90
4058;DHT22;2044;48.692;9.020;2022-07-23T00:08:19;21.80;97.50
4058;DHT22;2044;48.692;9.020;2022-07-23T00:10:46;21.80;45.50
4058;DHT22;2044;48.692;9.020;2022-07-23T00:13:13;21.80;1.00
4058;DHT22;2044;48.692;9.020;2022-07-23T00:15:39;21.80;73.30
4058;DHT22;2044;48.692;9.020;2022-07-23T00:18:06;21.70;99.90
4058;DHT22;2044;48.692;9.020;2022-07-23T00:20:33;21.60;99.90
4058;DHT22;2044;48.692;9.020;2022-07-23T00:23:00;21.50;1.00
4058;DHT22;2044;48.692;9.020;2022-07-23T00:25:28;21.40;1.00
4058;DHT22;2044;48.692;9.020;2022-07-23T00:27:55;21.40;99.90
4058;DHT22;2044;48.692;9.020;2022-07-23T00:30:22;21.30;1.00
4058;DHT22;2044;48.692;9.020;2022-07-23T00:32:50;21.10;99.90
4058;DHT22;2044;48.692;9.020;2022-07-23T00:35:19;20.80;99.90
4058;DHT22;2044;48.692;9.020;2022-07-23T00:37:47;20.50;99.90
4058;DHT22;2044;48.692;9.020;2022-07-23T00:40:14;20.30;90.10
4058;DHT22;2044;48.692;9.020;2022-07-23T00:42:42;20.10;99.90
4058;DHT22;2044;48.692;9.020;2022-07-23T00:45:09;19.90;99.90
4058;DHT22;2044;48.692;9.020;2022-07-23T00:47:36;19.70;1.00
4058;DHT22;2044;48.692;9.020;2022-07-23T00:50:04;19.90;99.90
4058;DHT22;2044;48.692;9.020;2022-07-23T00:52:32;19.90;99.90
4058;DHT22;2044;48.692;9.020;2022-07-23T00:54:59;19.80;99.90
4058;DHT22;2044;48.692;9.020;2022-07-23T00:57:26;20.00;99.90
4058;DHT22;2044;48.692;9.020;2022-07-23T00:59:54;20.10;1.00
4058;DHT22;2044;48.692;9.020;2022-07-23T01:02:21;20.20;1.00
4058;DHT22;2044;48.692;9.020;2022-07-23T01:04:48;20.00;99.90
4058;DHT22;2044;48.692;9.020;2022-07-23T01:07:15;20.10;99.90
4058;DHT22;2044;48.692;9.020;2022-07-23T01:09:43;20.20;99.90
4058;DHT22;2044;48.692;9.020;2022-07-23T01:12:10;20.30;99.90
4058;DHT22;2044;48.692;9.020;2022-07-23T01:14:37;20.20;1.00
4058;DHT22;2044;48.692;9.020;2022-07-23T01:17:05;20.00;99.90
4058;DHT22;2044;48.692;9.020;2022-07-23T01:19:31;20.00;1.00
4058;DHT22;2044;48.692;9.020;2022-07-23T01:22:02;20.00;88.60
4058;DHT22;2044;48.692;9.020;2022-07-23T01:24:30;19.90;99.90
4058;DHT22;2044;48.692;9.020;2022-07-23T01:26:57;19.90;99.90
4058;DHT22;2044;48.692;9.020;2022-07-23T01:29:24;19.90;1.00
4058;DHT22;2044;48.692;9.020;2022-07-23T01:31:50;20.00;1.00
4058;DHT22;2044;48.692;9.020;2022-07-23T01:34:17;20.10;99.90
4058;DHT22;2044;48.692;9.020;2022-07-23T01:36:44;19.90;74.20
4058;DHT22;2044;48.692;9.020;2022-07-23T01:39:12;19.60;99.90
4058;DHT22;2044;48.692;9.020;2022-07-23T01:41:40;19.20;1.00
4058;DHT22;2044;48.692;9.020;2022-07-23T01:44:07;19.20;1.00
4058;DHT22;2044;48.692;9.020;2022-07-23T01:46:33;19.30;1.00
4058;DHT22;2044;48.692;9.020;2022-07-23T01:49:00;19.40;99.90
4058;DHT22;2044;48.692;9.020;2022-07-23T01:51:27;19.50;99.90
4058;DHT22;2044;48.692;9.020;2022-07-23T01:53:54;19.50;99.90
4058;DHT22;2044;48.692;9.020;2022-07-23T01:56:20;19.40;99.90
4058;DHT22;2044;48.692;9.020;2022-07-23T01:58:48;19.10;1.00
4058;DHT22;2044;48.692;9.020;2022-07-23T02:01:15;19.00;1.00
4058;DHT22;2044;48.692;9.020;2022-07-23T02:03:42;19.10;1.00
4058;DHT22;2044;48.692;9.020;2022-07-23T02:06:09;19.40;1.00
4058;DHT22;2044;48.692;9.020;2022-07-23T02:08:36;19.40;99.90
4058;DHT22;2044;48.692;9.020;2022-07-23T02:11:02;19.50;99.90
4058;DHT22;2044;48.692;9.020;2022-07-23T02:13:29;19.40;99.90
4058;DHT22;2044;48.692;9.020;2022-07-23T02:15:57;19.30;1.00
4058;DHT22;2044;48.692;9.020;2022-07-23T02:18:24;19.10;1.00
4058;DHT22;2044;48.692;9.020;2022-07-23T02:20:50;19.00;1.00
4058;DHT22;2044;48.692;9.020;2022-07-23T02:23:17;18.90;1.00
4058;DHT22;2044;48.692;9.020;2022-07-23T02:25:44;19.00;1.00
4058;DHT22;2044;48.692;9.020;2022-07-23T02:28:10;19.10;1.00
4058;DHT22;2044;48.692;9.020;2022-07-23T02:30:37;19.20;1.00
4058;DHT22;2044;48.692;9.020;2022-07-23T02:33:06;19.20;99.90
4058;DHT22;2044;48.692;9.020;2022-07-23T02:35:33;19.20;99.90
4058;DHT22;2044;48.692;9.020;2022-07-23T02:37:59;19.20;1.00
4058;DHT22;2044;48.692;9.020;2022-07-23T02:40:26;19.30;99.90
4058;DHT22;2044;48.692;9.020;2022-07-23T02:42:53;19.30;99.90
4058;DHT22;2044;48.692;9.020;2022-07-23T02:45:19;19.30;99.90
4058;DHT22;2044;48.692;9.020;2022-07-23T02:47:46;19.20;99.90
4058;DHT22;2044;48.692;9.020;2022-07-23T02:50:14;19.20;99.90
4058;DHT22;2044;48.692;9.020;2022-07-23T02:52:41;19.00;1.00
4058;DHT22;2044;48.692;9.020;2022-07-23T02:55:08;18.90;1.00
4058;DHT22;2044;48.692;9.020;2022-07-23T02:57:34;18.90;1.00
4058;DHT22;2044;48.692;9.020;2022-07-23T03:00:02;18.80;1.00
4058;DHT22;2044;48.692;9.020;2022-07-23T03:02:29;18.80;1.00
4058;DHT22;2044;48.692;9.020;2022-07-23T03:04:55;18.70;31.10
4058;DHT22;2044;48.692;9.020;2022-07-23T03:07:23;18.70;35.40
4058;DHT22;2044;48.692;9.020;2022-07-23T03:09:50;18.70;70.70
4058;DHT22;2044;48.692;9.020;2022-07-23T03:12:17;18.60;99.90
4058;DHT22;2044;48.692;9.020;2022-07-23T03:14:43;18.50;99.90
4058;DHT22;2044;48.692;9.020;2022-07-23T03:17:10;18.50;99.90
4058;DHT22;2044;48.692;9.020;2022-07-23T03:19:37;18.50;99.90
4058;DHT22;2044;48.692;9.020;2022-07-23T03:22:04;18.50;99.90
4058;DHT22;2044;48.692;9.020;2022-07-23T03:24:32;18.50;99.90
4058;DHT22;2044;48.692;9.020;2022-07-23T03:27:13;18.60;49.30
4058;DHT22;2044;48.692;9.020;2022-07-23T03:29:39;18.90;1.00
4058;DHT22;2044;48.692;9.020;2022-07-23T03:32:06;18.90;1.00
4058;DHT22;2044;48.692;9.020;2022-07-23T03:34:33;19.00;1.00
4058;DHT22;2044;48.692;9.020;2022-07-23T03:37:00;18.90;1.00
4058;DHT22;2044;48.692;9.020;2022-07-23T03:39:26;18.90;1.00
4058;DHT22;2044;48.692;9.020;2022-07-23T03:41:55;18.80;1.00
4058;DHT22;2044;48.692;9.020;2022-07-23T03:44:21;18.60;1.00
4058;DHT22;2044;48.692;9.020;2022-07-23T03:46:48;18.50;50.30
4058;DHT22;2044;48.692;9.020;2022-07-23T03:49:15;18.40;99.90
4058;DHT22;2044;48.692;9.020;2022-07-23T03:51:42;18.30;99.90
4058;DHT22;2044;48.692;9.020;2022-07-23T03:54:09;18.20;99.90
4058;DHT22;2044;48.692;9.020;2022-07-23T03:56:35;18.30;99.90
4058;DHT22;2044;48.692;9.020;2022-07-23T03:59:03;18.30;99.90
4058;DHT22;2044;48.692;9.020;2022-07-23T04:01:30;18.30;99.90
4058;DHT22;2044;48.692;9.020;2022-07-23T04:03:57;18.30;99.90
4058;DHT22;2044;48.692;9.020;2022-07-23T04:06:24;18.40;99.90
4058;DHT22;2044;48.692;9.020;2022-07-23T04:08:51;18.60;39.70
4058;DHT22;2044;48.692;9.020;2022-07-23T04:11:17;18.80;1.00
4058;DHT22;2044;48.692;9.020;2022-07-23T04:13:44;18.90;1.00
4058;DHT22;2044;48.692;9.020;2022-07-23T04:16:12;18.90;1.00
4058;DHT22;2044;48.692;9.020;2022-07-23T04:18:39;18.90;1.00
4058;DHT22;2044;48.692;9.020;2022-07-23T04:21:06;18.90;1.00
4058;DHT22;2044;48.692;9.020;2022-07-23T04:23:32;19.00;1.00
4058;DHT22;2044;48.692;9.020;2022-07-23T04:25:59;19.10;1.00
4058;DHT22;2044;48.692;9.020;2022-07-23T04:28:26;19.10;1.00
4058;DHT22;2044;48.692;9.020;2022-07-23T04:30:55;19.10;99.90
4058;DHT22;2044;48.692;9.020;2022-07-23T04:33:24;19.20;99.90
4058;DHT22;2044;48.692;9.020;2022-07-23T04:35:50;19.20;95.80
4058;DHT22;2044;48.692;9.020;2022-07-23T04:38:17;19.20;1.00
4058;DHT22;2044;48.692;9.020;2022-07-23T04:40:44;19.30;1.00
4058;DHT22;2044;48.692;9.020;2022-07-23T04:43:11;19.30;1.00
4058;DHT22;2044;48.692;9.020;2022-07-23T04:45:37;19.40;96.80
4058;DHT22;2044;48.692;9.020;2022-07-23T04:48:04;19.50;1.00
4058;DHT22;2044;48.692;9.020;2022-07-23T04:50:32;19.70;99.90
4058;DHT22;2044;48.692;9.020;2022-07-23T04:52:59;19.80;1.00
4058;DHT22;2044;48.692;9.020;2022-07-23T04:55:26;19.90;99.90
4058;DHT22;2044;48.692;9.020;2022-07-23T04:57:53;20.20;99.90
4058;DHT22;2044;48.692;9.020;2022-07-23T05:00:20;20.50;1.00
4058;DHT22;2044;48.692;9.020;2022-07-23T05:02:46;20.80;1.00
4058;DHT22;2044;48.692;9.020;2022-07-23T05:05:13;20.90;99.90
4058;DHT22;2044;48.692;9.020;2022-07-23T05:07:41;20.90;99.90
4058;DHT22;2044;48.692;9.020;2022-07-23T05:10:08;20.50;99.90
4058;DHT22;2044;48.692;9.020;2022-07-23T05:12:35;20.20;99.90
4058;DHT22;2044;48.692;9.020;2022-07-23T05:15:02;20.30;99.90
4058;DHT22;2044;48.692;9.020;2022-07-23T05:17:29;20.80;1.00
4058;DHT22;2044;48.692;9.020;2022-07-23T05:19:55;20.90;1.00
4058;DHT22;2044;48.692;9.020;2022-07-23T05:22:22;20.80;1.00
4058;DHT22;2044;48.692;9.020;2022-07-23T05:24:50;20.80;99.90
4058;DHT22;2044;48.692;9.020;2022-07-23T05:27:17;20.70;99.90
4058;DHT22;2044;48.692;9.020;2022-07-23T05:29:43;21.20;99.90
4058;DHT22;2044;48.692;9.020;2022-07-23T05:32:10;21.50;99.90
4058;DHT22;2044;48.692;9.020;2022-07-23T05:34:37;21.90;1.00
4058;DHT22;2044;48.692;9.020;2022-07-23T05:37:03;22.50;96.70
4058;DHT22;2044;48.692;9.020;2022-07-23T05:39:30;23.30;99.90
4058;DHT22;2044;48.692;9.020;2022-07-23T05:41:58;23.30;99.90
4058;DHT22;2044;48.692;9.020;2022-07-23T05:44:25;23.30;99.90
4058;DHT22;2044;48.692;9.020;2022-07-23T05:46:52;22.80;1.00
4058;DHT22;2044;48.692;9.020;2022-07-23T05:49:19;22.60;1.00
4058;DHT22;2044;48.692;9.020;2022-07-23T05:51:46;22.70;99.90
4058;DHT22;2044;48.692;9.020;2022-07-23T05:54:12;22.60;18.30
4058;DHT22;2044;48.692;9.020;2022-07-23T05:56:39;22.60;99.90
4058;DHT22;2044;48.692;9.020;2022-07-23T05:59:07;22.90;1.00
4058;DHT22;2044;48.692;9.020;2022-07-23T06:01:34;22.80;1.00
4058;DHT22;2044;48.692;9.020;2022-07-23T06:04:01;22.50;43.90
4058;DHT22;2044;48.692;9.020;2022-07-23T06:06:27;22.30;99.90
4058;DHT22;2044;48.692;9.020;2022-07-23T06:08:54;22.70;99.90
4058;DHT22;2044;48.692;9.020;2022-07-23T06:11:21;23.00;1.00
4058;DHT22;2044;48.692;9.020;2022-07-23T06:13:47;24.10;99.90
4058;DHT22;2044;48.692;9.020;2022-07-23T06:16:15;25.10;1.00
4058;DHT22;2044;48.692;9.020;2022-07-23T06:18:42;25.50;1.00
4058;DHT22;2044;48.692;9.020;2022-07-23T06:21:09;25.50;1.00
4058;DHT22;2044;48.692;9.020;2022-07-23T06:23:36;25.40;1.00
4058;DHT22;2044;48.692;9.020;2022-07-23T06:26:02;26.00;1.00
4058;DHT22;2044;48.692;9.020;2022-07-23T06:28:29;26.80;1.00
4058;DHT22;2044;48.692;9.020;2022-07-23T06:30:56;25.70;1.00
4058;DHT22;2044;48.692;9.020;2022-07-23T06:33:24;25.10;1.00
4058;DHT22;2044;48.692;9.020;2022-07-23T06:35:50;25.60;1.00
4058;DHT22;2044;48.692;9.020;2022-07-23T06:38:17;26.30;1.00
4058;DHT22;2044;48.692;9.020;2022-07-23T06:40:44;26.70;1.00
4058;DHT22;2044;48.692;9.020;2022-07-23T06:43:11;26.20;1.00
4058;DHT22;2044;48.692;9.020;2022-07-23T06:45:38;25.70;1.00
4058;DHT22;2044;48.692;9.020;2022-07-23T06:48:05;25.10;1.00
4058;DHT22;2044;48.692;9.020;2022-07-23T06:50:37;24.80;1.00
4058;DHT22;2044;48.692;9.020;2022-07-23T06:53:07;24.40;99.90
4058;DHT22;2044;48.692;9.020;2022-07-23T06:55:37;24.20;99.90
4058;DHT22;2044;48.692;9.020;2022-07-23T06:58:04;24.20;99.90
4058;DHT22;2044;48.692;9.020;2022-07-23T07:00:30;24.10;99.90
4058;DHT22;2044;48.692;9.020;2022-07-23T07:02:58;24.10;99.90
4058;DHT22;2044;48.692;9.020;2022-07-23T07:05:26;24.10;99.90
4058;DHT22;2044;48.692;9.020;2022-07-23T07:07:54;24.00;99.90
4058;DHT22;2044;48.692;9.020;2022-07-23T07:10:21;23.70;99.90
4058;DHT22;2044;48.692;9.020;2022-07-23T07:12:47;23.60;99.90
4058;DHT22;2044;48.692;9.020;2022-07-23T07:15:14;23.70;99.90
4058;DHT22;2044;48.692;9.020;2022-07-23T07:17:41;23.70;99.90
4058;DHT22;2044;48.692;9.020;2022-07-23T07:20:09;24.30;99.10
4058;DHT22;2044;48.692;9.020;2022-07-23T07:22:36;25.00;1.00
4058;DHT22;2044;48.692;9.020;2022-07-23T07:25:05;25.20;1.00
4058;DHT22;2044;48.692;9.020;2022-07-23T07:27:32;25.30;1.00
4058;DHT22;2044;48.692;9.020;2022-07-23T07:29:59;25.40;1.00
4058;DHT22;2044;48.692;9.020;2022-07-23T07:32:26;25.30;1.00
4058;DHT22;2044;48.692;9.020;2022-07-23T07:34:52;26.70;1.00
4058;DHT22;2044;48.692;9.020;2022-07-23T07:37:19;28.50;99.90
4058;DHT22;2044;48.692;9.020;2022-07-23T07:39:46;28.90;99.90
4058;DHT22;2044;48.692;9.020;2022-07-23T07:42:14;30.30;99.90
4058;DHT22;2044;48.692;9.020;2022-07-23T07:44:41;31.50;99.90
4058;DHT22;2044;48.692;9.020;2022-07-23T07:47:07;32.10;99.90
4058;DHT22;2044;48.692;9.020;2022-07-23T07:49:34;32.20;99.90
4058;DHT22;2044;48.692;9.020;2022-07-23T07:52:01;33.10;99.90
4058;DHT22;2044;48.692;9.020;2022-07-23T07:54:29;32.10;99.90
4058;DHT22;2044;48.692;9.020;2022-07-23T07:56:57;31.00;99.90
4058;DHT22;2044;48.692;9.020;2022-07-23T07:59:25;31.10;99.90
4058;DHT22;2044;48.692;9.020;2022-07-23T08:01:52;31.10;99.90
4058;DHT22;2044;48.692;9.020;2022-07-23T08:04:19;31.30;99.90
4058;DHT22;2044;48.692;9.020;2022-07-23T08:06:46;31.50;99.90
4058;DHT22;2044;48.692;9.020;2022-07-23T08:09:12;31.30;99.90
4058;DHT22;2044;48.692;9.020;2022-07-23T08:11:39;32.60;99.90
4058;DHT22;2044;48.692;9.020;2022-07-23T08:14:06;32.20;99.90
4058;DHT22;2044;48.692;9.020;2022-07-23T08:16:34;30.90;99.90
4058;DHT22;2044;48.692;9.020;2022-07-23T08:19:01;30.70;99.90
4058;DHT22;2044;48.692;9.020;2022-07-23T08:21:28;29.80;99.90
4058;DHT22;2044;48.692;9.020;2022-07-23T08:23:54;29.30;99.90
4058;DHT22;2044;48.692;9.020;2022-07-23T08:26:21;30.80;99.90
4058;DHT22;2044;48.692;9.020;2022-07-23T08:28:48;32.50;99.90
4058;DHT22;2044;48.692;9.020;2022-07-23T08:31:15;34.50;99.90
4058;DHT22;2044;48.692;9.020;2022-07-23T08:33:44;34.70;99.90
4058;DHT22;2044;48.692;9.020;2022-07-23T08:36:11;34.30;99.90
4058;DHT22;2044;48.692;9.020;2022-07-23T08:38:37;33.10;99.90
4058;DHT22;2044;48.692;9.020;2022-07-23T08:41:07;31.80;99.90
4058;DHT22;2044;48.692;9.020;2022-07-23T08:43:34;31.60;99.90
4058;DHT22;2044;48.692;9.020;2022-07-23T08:46:02;31.60;99.90
4058;DHT22;2044;48.692;9.020;2022-07-23T08:48:30;32.20;99.90
4058;DHT22;2044;48.692;9.020;2022-07-23T08:51:01;32.10;99.90
4058;DHT22;2044;48.692;9.020;2022-07-23T08:53:30;31.40;99.90
4058;DHT22;2044;48.692;9.020;2022-07-23T08:55:59;30.80;99.90
4058;DHT22;2044;48.692;9.020;2022-07-23T08:58:27;29.90;99.90
4058;DHT22;2044;48.692;9.020;2022-07-23T09:00:54;29.30;99.90
4058;DHT22;2044;48.692;9.020;2022-07-23T09:03:23;29.30;99.90
4058;DHT22;2044;48.692;9.020;2022-07-23T09:05:50;30.10;99.90
4058;DHT22;2044;48.692;9.020;2022-07-23T09:08:19;31.70;99.90
4058;DHT22;2044;48.692;9.020;2022-07-23T09:10:49;33.30;99.90
4058;DHT22;2044;48.692;9.020;2022-07-23T09:13:36;34.10;99.90
4058;DHT22;2044;48.692;9.020;2022-07-23T09:16:06;35.30;99.90
4058;DHT22;2044;48.692;9.020;2022-07-23T09:18:37;35.50;99.90
4058;DHT22;2044;48.692;9.020;2022-07-23T09:21:16;35.30;99.90
4058;DHT22;2044;48.692;9.020;2022-07-23T09:23:46;35.40;99.90
4058;DHT22;2044;48.692;9.020;2022-07-23T09:26:31;35.10;99.90
4058;DHT22;2044;48.692;9.020;2022-07-23T09:29:06;36.00;99.90
4058;DHT22;2044;48.692;9.020;2022-07-23T09:31:41;36.30;99.90
4058;DHT22;2044;48.692;9.020;2022-07-23T09:34:11;37.10;99.90
4058;DHT22;2044;48.692;9.020;2022-07-23T09:36:38;37.20;99.90
4058;DHT22;2044;48.692;9.020;2022-07-23T09:39:07;37.40;99.90
4058;DHT22;2044;48.692;9.020;2022-07-23T09:41:37;37.30;99.90
4058;DHT22;2044;48.692;9.020;2022-07-23T09:44:12;35.60;98.60
4058;DHT22;2044;48.692;9.020;2022-07-23T09:46:39;34.80;97.80
4058;DHT22;2044;48.692;9.020;2022-07-23T09:49:18;34.70;99.90
4058;DHT22;2044;48.692;9.020;2022-07-23T09:51:46;35.70;99.90
4058;DHT22;2044;48.692;9.020;2022-07-23T09:54:29;35.70;99.90
4058;DHT22;2044;48.692;9.020;2022-07-23T09:57:00;35.10;99.90
4058;DHT22;2044;48.692;9.020;2022-07-23T09:59:29;34.90;99.90
4058;DHT22;2044;48.692;9.020;2022-07-23T10:01:58;34.90;99.90
4058;DHT22;2044;48.692;9.020;2022-07-23T10:04:26;34.10;99.90
4058;DHT22;2044;48.692;9.020;2022-07-23T10:06:55;34.20;99.90
4058;DHT22;2044;48.692;9.020;2022-07-23T10:09:25;35.40;99.90
4058;DHT22;2044;48.692;9.020;2022-07-23T10:11:55;36.20;99.90
4058;DHT22;2044;48.692;9.020;2022-07-23T10:14:26;36.70;99.90
4058;DHT22;2044;48.692;9.020;2022-07-23T10:16:56;36.80;97.50
4058;DHT22;2044;48.692;9.020;2022-07-23T10:19:23;36.50;97.10
4058;DHT22;2044;48.692;9.020;2022-07-23T10:21:53;36.10;96.70
4058;DHT22;2044;48.692;9.020;2022-07-23T10:24:29;36.00;95.70
4058;DHT22;2044;48.692;9.020;2022-07-23T10:27:09;36.20;95.50
4058;DHT22;2044;48.692;9.020;2022-07-23T10:29:45;35.20;92.90
4058;DHT22;2044;48.692;9.020;2022-07-23T10:32:25;35.00;96.40
4058;DHT22;2044;48.692;9.020;2022-07-23T10:34:58;35.90;94.80
4058;DHT22;2044;48.692;9.020;2022-07-23T10:37:34;35.90;92.60
4058;DHT22;2044;48.692;9.020;2022-07-23T10:40:10;35.40;92.70
4058;DHT22;2044;48.692;9.020;2022-07-23T10:42:38;33.80;93.70
4058;DHT22;2044;48.692;9.020;2022-07-23T10:45:27;34.10;94.30
4058;DHT22;2044;48.692;9.020;2022-07-23T10:47:55;34.20;95.70
4058;DHT22;2044;48.692;9.020;2022-07-23T10:50:24;34.80;95.60
4058;DHT22;2044;48.692;9.020;2022-07-23T10:53:13;34.70;92.30
4058;DHT22;2044;48.692;9.020;2022-07-23T10:55:49;34.20;92.50
4058;DHT22;2044;48.692;9.020;2022-07-23T10:58:23;33.20;91.50
4058;DHT22;2044;48.692;9.020;2022-07-23T11:01:34;33.30;94.50
4058;DHT22;2044;48.692;9.020;2022-07-23T11:04:02;34.60;95.50
4058;DHT22;2044;48.692;9.020;2022-07-23T11:07:06;35.60;92.60
4058;DHT22;2044;48.692;9.020;2022-07-23T11:09:39;35.40;92.20
4058;DHT22;2044;48.692;9.020;2022-07-23T11:12:32;35.20;92.10
4058;DHT22;2044;48.692;9.020;2022-07-23T11:15:04;34.50;92.00
4058;DHT22;2044;48.692;9.020;2022-07-23T11:17:32;34.30;92.70
4058;DHT22;2044;48.692;9.020;2022-07-23T11:20:14;35.50;91.80
4058;DHT22;2044;48.692;9.020;2022-07-23T11:22:49;35.10;90.70
4058;DHT22;2044;48.692;9.020;2022-07-23T11:25:35;34.50;89.30
4058;DHT22;2044;48.692;9.020;2022-07-23T11:28:11;34.50;93.60
4058;DHT22;2044;48.692;9.020;2022-07-23T11:30:41;34.30;86.70
4058;DHT22;2044;48.692;9.020;2022-07-23T11:33:19;33.90;98.60
4058;DHT22;2044;48.692;9.020;2022-07-23T11:35:47;33.70;89.40
4058;DHT22;2044;48.692;9.020;2022-07-23T11:38:17;33.10;89.50
4058;DHT22;2044;48.692;9.020;2022-07-23T11:40:46;33.00;90.80
4058;DHT22;2044;48.692;9.020;2022-07-23T11:43:13;33.40;89.60
4058;DHT22;2044;48.692;9.020;2022-07-23T11:45:44;34.00;89.90
4058;DHT22;2044;48.692;9.020;2022-07-23T11:48:16;35.60;89.30
4058;DHT22;2044;48.692;9.020;2022-07-23T11:50:43;36.30;88.40
4058;DHT22;2044;48.692;9.020;2022-07-23T11:53:10;35.70;85.70
4058;DHT22;2044;48.692;9.020;2022-07-23T11:55:37;34.80;81.70
4058;DHT22;2044;48.692;9.020;2022-07-23T11:58:04;34.10;83.00
4058;DHT22;2044;48.692;9.020;2022-07-23T12:00:31;33.80;80.80
4058;DHT22;2044;48.692;9.020;2022-07-23T12:03:01;34.20;83.00
4058;DHT22;2044;48.692;9.020;2022-07-23T12:05:30;34.30;85.60
4058;DHT22;2044;48.692;9.020;2022-07-23T12:07:58;34.90;86.00
4058;DHT22;2044;48.692;9.020;2022-07-23T12:10:26;34.50;80.80
4058;DHT22;2044;48.692;9.020;2022-07-23T12:12:55;34.20;81.00
4058;DHT22;2044;48.692;9.020;2022-07-23T12:15:25;34.00;84.10
4058;DHT22;2044;48.692;9.020;2022-07-23T12:17:53;34.10;85.10
4058;DHT22;2044;48.692;9.020;2022-07-23T12:20:24;34.40;84.00
4058;DHT22;2044;48.692;9.020;2022-07-23T12:22:53;34.40;84.20
4058;DHT22;2044;48.692;9.020;2022-07-23T12:25:23;34.50;81.30
4058;DHT22;2044;48.692;9.020;2022-07-23T12:27:59;34.30;82.30
4058;DHT22;2044;48.692;9.020;2022-07-23T12:30:29;33.90;80.40
4058;DHT22;2044;48.692;9.020;2022-07-23T12:32:58;33.80;83.10
4058;DHT22;2044;48.692;9.020;2022-07-23T12:35:33;34.80;85.60
4058;DHT22;2044;48.692;9.020;2022-07-23T12:38:02;35.00;81.30
4058;DHT22;2044;48.692;9.020;2022-07-23T12:40:31;35.40;83.30
4058;DHT22;2044;48.692;9.020;2022-07-23T12:42:59;35.40;83.80
4058;DHT22;2044;48.692;9.020;2022-07-23T12:45:28;35.60;83.00
4058;DHT22;2044;48.692;9.020;2022-07-23T12:48:05;35.80;99.90
4058;DHT22;2044;48.692;9.020;2022-07-23T12:50:42;35.20;81.20
4058;DHT22;2044;48.692;9.020;2022-07-23T12:53:12;34.40;84.50
4058;DHT22;2044;48.692;9.020;2022-07-23T12:55:40;33.70;83.40
4058;DHT22;2044;48.692;9.020;2022-07-23T12:58:14;33.30;84.90
4058;DHT22;2044;48.692;9.020;2022-07-23T13:00:57;33.30;84.60
4058;DHT22;2044;48.692;9.020;2022-07-23T13:03:26;34.20;87.30
4058;DHT22;2044;48.692;9.020;2022-07-23T13:05:56;35.00;88.40
4058;DHT22;2044;48.692;9.020;2022-07-23T13:08:23;35.50;84.00
4058;DHT22;2044;48.692;9.020;2022-07-23T13:10:50;35.30;81.80
4058;DHT22;2044;48.692;9.020;2022-07-23T13:13:20;35.60;82.50
4058;DHT22;2044;48.692;9.020;2022-07-23T13:15:48;36.70;83.30
4058;DHT22;2044;48.692;9.020;2022-07-23T13:18:14;36.60;78.10
4058;DHT22;2044;48.692;9.020;2022-07-23T13:20:43;35.80;77.30
4058;DHT22;2044;48.692;9.020;2022-07-23T13:23:11;35.10;75.10
4058;DHT22;2044;48.692;9.020;2022-07-23T13:25:38;34.40;74.90
4058;DHT22;2044;48.692;9.020;2022-07-23T13:28:05;33.60;76.10
4058;DHT22;2044;48.692;9.020;2022-07-23T13:30:31;32.80;76.70
4058;DHT22;2044;48.692;9.020;2022-07-23T13:32:58;32.00;80.00
4058;DHT22;2044;48.692;9.020;2022-07-23T13:35:25;31.70;82.40
4058;DHT22;2044;48.692;9.020;2022-07-23T13:37:52;31.40;80.80
4058;DHT22;2044;48.692;9.020;2022-07-23T13:40:20;31.10;87.30
4058;DHT22;2044;48.692;9.020;2022-07-23T13:42:47;31.10;87.50
4058;DHT22;2044;48.692;9.020;2022-07-23T13:45:14;31.00;87.40
4058;DHT22;2044;48.692;9.020;2022-07-23T13:47:40;30.70;90.60
4058;DHT22;2044;48.692;9.020;2022-07-23T13:50:07;30.90;91.80
4058;DHT22;2044;48.692;9.020;2022-07-23T13:52:34;31.00;90.90
4058;DHT22;2044;48.692;9.020;2022-07-23T13:55:03;31.00;90.40
4058;DHT22;2044;48.692;9.020;2022-07-23T13:57:32;30.90;91.80
4058;DHT22;2044;48.692;9.020;2022-07-23T13:59:59;30.70;92.20
4058;DHT22;2044;48.692;9.020;2022-07-23T14:02:26;30.60;91.90
4058;DHT22;2044;48.692;9.020;2022-07-23T14:04:53;30.70;91.60
4058;DHT22;2044;48.692;9.020;2022-07-23T14:07:20;30.90;92.20
4058;DHT22;2044;48.692;9.020;2022-07-23T14:09:46;30.70;90.50
4058;DHT22;2044;48.692;9.020;2022-07-23T14:12:13;30.70;90.60
4058;DHT22;2044;48.692;9.020;2022-07-23T14:14:41;31.20;91.50
4058;DHT22;2044;48.692;9.020;2022-07-23T14:17:08;31.20;90.10
4058;DHT22;2044;48.692;9.020;2022-07-23T14:19:35;31.40;96.60
4058;DHT22;2044;48.692;9.020;2022-07-23T14:22:02;30.90;87.40
4058;DHT22;2044;48.692;9.020;2022-07-23T14:24:29;30.60;90.00
4058;DHT22;2044;48.692;9.020;2022-07-23T14:26:55;30.70;91.60
4058;DHT22;2044;48.692;9.020;2022-07-23T14:29:22;30.70;90.40
4058;DHT22;2044;48.692;9.020;2022-07-23T14:31:50;30.50;90.30
4058;DHT22;2044;48.692;9.020;2022-07-23T14:34:17;30.40;93.30
4058;DHT22;2044;48.692;9.020;2022-07-23T14:36:44;30.10;93.40
4058;DHT22;2044;48.692;9.020;2022-07-23T14:39:10;30.20;92.30
4058;DHT22;2044;48.692;9.020;2022-07-23T14:41:38;30.00;92.70
4058;DHT22;2044;48.692;9.020;2022-07-23T14:44:05;29.70;91.50
4058;DHT22;2044;48.692;9.020;2022-07-23T14:46:32;29.80;91.00
4058;DHT22;2044;48.692;9.020;2022-07-23T14:49:00;29.60;92.10
4058;DHT22;2044;48.692;9.020;2022-07-23T14:51:26;29.70;91.70
4058;DHT22;2044;48.692;9.020;2022-07-23T14:53:53;29.80;90.30
4058;DHT22;2044;48.692;9.020;2022-07-23T14:56:20;30.00;90.10
4058;DHT22;2044;48.692;9.020;2022-07-23T14:58:47;29.90;86.60
4058;DHT22;2044;48.692;9.020;2022-07-23T15:01:14;29.70;84.00
4058;DHT22;2044;48.692;9.020;2022-07-23T15:03:43;29.70;88.10
4058;DHT22;2044;48.692;9.020;2022-07-23T15:06:11;29.70;89.40
4058;DHT22;2044;48.692;9.020;2022-07-23T15:08:38;29.80;90.50
4058;DHT22;2044;48.692;9.020;2022-07-23T15:11:05;30.00;88.20
4058;DHT22;2044;48.692;9.020;2022-07-23T15:13:34;30.40;89.90
4058;DHT22;2044;48.692;9.020;2022-07-23T15:16:01;30.30;89.80
4058;DHT22;2044;48.692;9.020;2022-07-23T15:18:29;30.20;90.40
4058;DHT22;2044;48.692;9.020;2022-07-23T15:20:55;30.10;90.00
4058;DHT22;2044;48.692;9.020;2022-07-23T15:23:24;29.80;91.30
4058;DHT22;2044;48.692;9.020;2022-07-23T15:25:50;29.80;90.00
4058;DHT22;2044;48.692;9.020;2022-07-23T15:28:17;29.60;90.20
4058;DHT22;2044;48.692;9.020;2022-07-23T15:30:44;29.20;90.90
4058;DHT22;2044;48.692;9.020;2022-07-23T15:33:10;29.00;93.00
4058;DHT22;2044;48.692;9.020;2022-07-23T15:35:37;29.80;92.50
4058;DHT22;2044;48.692;9.020;2022-07-23T15:38:04;30.60;90.80
4058;DHT22;2044;48.692;9.020;2022-07-23T15:40:32;30.70;89.60
4058;DHT22;2044;48.692;9.020;2022-07-23T15:42:59;30.60;90.40
4058;DHT22;2044;48.692;9.020;2022-07-23T15:45:26;30.60;91.30
4058;DHT22;2044;48.692;9.020;2022-07-23T15:47:54;30.60;91.50
4058;DHT22;2044;48.692;9.020;2022-07-23T15:50:21;30.50;91.60
4058;DHT22;2044;48.692;9.020;2022-07-23T15:52:48;30.00;91.90
4058;DHT22;2044;48.692;9.020;2022-07-23T15:55:15;29.90;94.00
4058;DHT22;2044;48.692;9.020;2022-07-23T15:57:43;30.10;94.30
4058;DHT22;2044;48.692;9.020;2022-07-23T16:00:10;30.90;93.10
4058;DHT22;2044;48.692;9.020;2022-07-23T16:02:37;30.80;92.40
4058;DHT22;2044;48.692;9.020;2022-07-23T16:05:04;30.90;92.40
4058;DHT22;2044;48.692;9.020;2022-07-23T16:07:49;31.00;93.00
4058;DHT22;2044;48.692;9.020;2022-07-23T16:10:15;31.20;91.50
4058;DHT22;2044;48.692;9.020;2022-07-23T16:12:44;31.60;90.30